Terminal Aerodrome Forecast
Issued by NWS Midland/Odessa, TX

Home | Current Version | Previous Version | Text Only | Print | Product List | Glossary On
Versions: 1 2 3 4 5 6 7 8 9 10 11 12 13
000
FTUS44 KMAF 042300
TAFMAF
TAF
KMAF 042330Z 0500/0524 14020G30KT P6SM SCT080 BKN150
     FM050600 15015G22KT P6SM BKN040
      TEMPO 0506/0509 6SM -TSRA SCT010 OVC020CB
     FM051200 16020G30KT P6SM SCT010 BKN020=

USA.gov is the U.S. government's official web portal to all federal, state and local government web resources and services.